Archival Weather

Chicago O'Hare International

Chicago, Illinois (KORD)

Report from: Monday, December 26, 2022 6:51 AM CST
Current time: Friday, June 21, 2024 3:45 AM CDT

Current weather – Weather history – Daily summaries
Weather forecast

Present weatherLight snow
Temperature-8.9°C (16.0°F)
Dew point-13.3°C (8.1°F)
Winds Calm
Visibility4 mi. (6.4 km)
Clouds Ceiling: Overcast 3,100 ft. (945 m)
Altimeter30.10 in.Hg (1019 mB)
Precipitiation0.01 in. (0 mm)
Relative humidity70 %
Density altitude-3,198 ft. (-975 m)
Sea-level pressure102.1 kPa (1021 mB, 30.14 in.Hg)
Remarks System requires maintenance
Automated weather observing station with precipitation discriminator
Flight conditions Marginal Visual Meteorological Conditions
Raw dataKORD 261251Z 00000KT 4SM -SN OVC031 M09/M13 A3010 RMK AO2 SLP207 P0001 T10891133 $
An error has occurred. This application may no longer respond until reloaded. Reload 🗙